createdAt,value
2019-03-22T01:01:34.789Z,43.54
2019-03-22T01:02:34.980Z,43.96
2019-03-22T01:04:34.757Z,44.25
2019-03-22T01:05:34.745Z,43.84
2019-03-22T01:06:34.737Z,43.95
2019-03-22T01:07:34.725Z,43.54
2019-03-22T01:08:34.819Z,43.04
2019-03-22T01:09:34.705Z,37.80
2019-03-22T01:10:34.694Z,39.25
2019-03-22T01:11:34.685Z,39.69
2019-03-22T01:12:34.675Z,41.68
2019-03-22T01:13:34.662Z,42.41
2019-03-22T01:14:34.705Z,42.67
2019-03-22T01:15:34.641Z,44.64
2019-03-22T01:16:34.632Z,46.01
2019-03-22T01:17:34.618Z,48.07
2019-03-22T01:18:34.607Z,47.96
2019-03-22T01:19:34.599Z,47.17
2019-03-22T01:20:34.739Z,48.21
2019-03-22T01:21:34.581Z,53.08
2019-03-22T01:22:34.566Z,52.02
2019-03-22T01:23:34.554Z,51.97
2019-03-22T01:24:34.546Z,50.09
2019-03-22T01:25:34.534Z,49.89
2019-03-22T01:26:34.577Z,49.10
2019-03-22T01:27:40.248Z,47.86
2019-03-22T01:28:59.331Z,46.38
2019-03-22T01:29:59.314Z,46.45
2019-03-22T01:30:59.305Z,42.61
2019-03-22T01:31:59.340Z,44.11
2019-03-22T01:32:59.280Z,42.01
2019-03-22T01:33:59.273Z,42.84
2019-03-22T01:34:59.253Z,43.13
2019-03-22T01:35:59.247Z,42.45
2019-03-22T01:36:59.252Z,44.70
2019-03-22T01:37:59.377Z,43.87
2019-03-22T01:38:59.212Z,46.00
2019-03-22T01:39:59.203Z,46.38
2019-03-22T01:40:59.193Z,45.24
2019-03-22T01:41:59.182Z,45.75
2019-03-22T01:42:59.172Z,44.90
2019-03-22T01:43:59.215Z,44.58
2019-03-22T01:44:59.144Z,43.95
2019-03-22T01:45:59.137Z,43.75
2019-03-22T01:46:59.121Z,37.78
2019-03-22T01:47:59.116Z,37.21
2019-03-22T01:48:59.102Z,38.15
2019-03-22T01:49:59.142Z,44.41
2019-03-22T01:50:59.088Z,44.49
2019-03-22T01:51:59.072Z,44.47
2019-03-22T01:52:59.061Z,44.15
2019-03-22T01:53:59.049Z,44.45
2019-03-22T01:54:59.038Z,37.98
2019-03-22T01:55:59.232Z,37.60
2019-03-22T01:56:59.018Z,38.87
2019-03-22T01:57:59.004Z,39.29
2019-03-22T01:58:58.992Z,40.85
2019-03-22T01:59:58.986Z,41.29
2019-03-22T02:00:58.968Z,41.31
2019-03-22T02:01:59.066Z,42.04
2019-03-22T02:02:58.947Z,42.26
2019-03-22T02:03:58.943Z,42.69
2019-03-22T02:04:58.928Z,43.71
2019-03-22T02:05:58.916Z,43.53
2019-03-22T02:06:58.941Z,43.32
2019-03-22T02:07:58.946Z,41.91
2019-03-22T02:08:58.882Z,42.63
2019-03-22T02:09:58.874Z,42.44
2019-03-22T02:10:58.863Z,42.85
2019-03-22T02:11:58.849Z,43.13
2019-03-22T02:12:58.837Z,42.93
2019-03-22T02:13:58.979Z,43.56
2019-03-22T02:14:58.818Z,42.65
2019-03-22T02:15:58.807Z,43.97
2019-03-22T02:16:58.794Z,41.94
2019-03-22T02:17:58.786Z,43.28
2019-03-22T02:18:58.775Z,43.56
2019-03-22T02:19:58.866Z,44.38
2019-03-22T02:20:58.760Z,42.85
2019-03-22T02:21:58.738Z,43.26
2019-03-22T02:22:58.731Z,43.18
2019-03-22T02:23:58.718Z,45.22
2019-03-22T02:24:58.708Z,43.46
2019-03-22T02:25:58.796Z,43.26
2019-03-22T02:26:58.687Z,43.56
2019-03-22T02:28:04.211Z,43.87
2019-03-22T02:28:59.765Z,44.30
2019-03-22T02:29:58.656Z,43.36
2019-03-22T02:30:58.644Z,44.38
2019-03-22T02:31:58.785Z,44.38
2019-03-22T02:32:58.634Z,43.79
2019-03-22T02:33:58.618Z,44.30
2019-03-22T02:34:58.601Z,45.11
2019-03-22T02:35:58.590Z,44.91
2019-03-22T02:36:58.576Z,43.28
2019-03-22T02:37:58.612Z,43.18
2019-03-22T02:38:58.560Z,43.48
2019-03-22T02:39:58.543Z,44.50
2019-03-22T02:40:58.539Z,44.40
2019-03-22T02:41:58.525Z,44.81
2019-03-22T02:42:58.512Z,45.09
2019-03-22T02:43:58.553Z,44.89
2019-03-22T02:44:58.490Z,44.15
2019-03-22T02:45:58.482Z,44.26
2019-03-22T02:46:58.470Z,44.36
2019-03-22T02:47:58.461Z,46.78
2019-03-22T02:48:58.445Z,45.84
2019-03-22T02:49:58.636Z,44.83
2019-03-22T02:50:58.444Z,43.68
2019-03-22T02:51:58.416Z,44.40
2019-03-22T02:52:58.409Z,46.02
2019-03-22T02:53:58.398Z,46.33
2019-03-22T02:54:58.385Z,43.68
2019-03-22T02:55:58.599Z,42.57
2019-03-22T02:56:58.366Z,42.57
2019-03-22T02:57:58.350Z,42.24
2019-03-22T02:58:59.424Z,41.82
2019-03-22T02:59:58.382Z,41.31
2019-03-22T03:00:58.319Z,41.41
2019-03-22T03:01:58.357Z,39.48
2019-03-22T03:02:58.296Z,40.09
2019-03-22T03:03:58.280Z,39.48
2019-03-22T03:04:58.275Z,41.00
2019-03-22T03:05:58.261Z,41.09
2019-03-22T03:06:58.254Z,40.78
2019-03-22T03:07:58.392Z,40.07
2019-03-22T03:08:58.228Z,42.81
2019-03-22T03:09:58.219Z,41.80
2019-03-22T03:10:58.206Z,42.41
2019-03-22T03:11:58.199Z,41.58
2019-03-22T03:12:58.182Z,41.07
2019-03-22T03:13:58.220Z,43.60
2019-03-22T03:14:58.163Z,43.68
2019-03-22T03:15:58.152Z,43.59
2019-03-22T03:16:58.196Z,41.27
2019-03-22T03:17:58.132Z,41.17
2019-03-22T03:18:58.123Z,43.07
2019-03-22T03:19:58.157Z,42.57
2019-03-22T03:20:58.101Z,41.25
2019-03-22T03:21:58.087Z,39.71
2019-03-22T03:22:58.074Z,39.71
2019-03-22T03:23:58.065Z,41.13
2019-03-22T03:24:58.052Z,42.15
2019-03-22T03:25:58.193Z,41.32
2019-03-22T03:26:58.030Z,41.52
2019-03-22T03:27:58.015Z,40.00
2019-03-22T03:28:58.021Z,39.09
2019-03-22T03:29:57.999Z,37.97
2019-03-22T03:30:57.989Z,36.96
2019-03-22T03:31:58.078Z,39.49
2019-03-22T03:32:57.970Z,41.44
2019-03-22T03:33:57.965Z,42.96
2019-03-22T03:34:57.955Z,40.91
2019-03-22T03:35:57.934Z,43.76
2019-03-22T03:36:57.921Z,43.56
2019-03-22T03:37:58.014Z,44.86
2019-03-22T03:38:57.899Z,44.07
2019-03-22T03:39:57.888Z,46.40
2019-03-22T03:40:57.881Z,45.79
2019-03-22T03:41:57.868Z,46.30
2019-03-22T03:42:57.856Z,45.49
2019-03-22T03:43:57.991Z,45.08
2019-03-22T03:44:57.831Z,44.27
2019-03-22T03:45:57.823Z,44.07
2019-03-22T03:46:57.813Z,44.78
2019-03-22T03:47:57.801Z,43.97
2019-03-22T03:48:57.789Z,43.46
2019-03-22T03:49:57.878Z,41.44
2019-03-22T03:50:57.771Z,41.23
2019-03-22T03:51:57.765Z,40.32
2019-03-22T03:52:57.748Z,40.72
2019-03-22T03:53:57.738Z,40.12
2019-03-22T03:54:57.729Z,41.21
2019-03-22T03:55:57.822Z,41.54
2019-03-22T03:56:57.705Z,40.83
2019-03-22T03:57:57.692Z,41.41
2019-03-22T03:58:57.681Z,40.93
2019-03-22T03:59:57.670Z,42.45
2019-03-22T04:00:57.669Z,39.49
2019-03-22T04:01:57.801Z,37.08
2019-03-22T04:02:57.642Z,37.37
2019-03-22T04:03:57.646Z,37.37
2019-03-22T04:04:57.618Z,36.15
2019-03-22T04:05:57.608Z,35.72
2019-03-22T04:06:57.594Z,35.74
2019-03-22T04:07:57.638Z,35.04
2019-03-22T04:08:57.571Z,35.04
2019-03-22T04:09:57.569Z,34.93
2019-03-22T04:10:57.554Z,34.82
2019-03-22T04:11:57.542Z,35.65
2019-03-22T04:12:57.566Z,35.54
2019-03-22T04:13:57.621Z,35.14
2019-03-22T04:14:57.518Z,35.14
2019-03-22T04:15:57.526Z,37.97
2019-03-22T04:16:57.491Z,35.12
2019-03-22T04:17:57.473Z,35.94
2019-03-22T04:18:57.466Z,34.63
2019-03-22T04:19:57.608Z,36.25
2019-03-22T04:20:57.446Z,36.13
2019-03-22T04:21:57.440Z,35.63
2019-03-22T04:22:57.427Z,35.54
2019-03-22T04:23:57.416Z,36.13
2019-03-22T04:24:57.400Z,35.52
2019-03-22T04:25:57.443Z,35.93
2019-03-22T04:26:57.387Z,37.95
2019-03-22T04:27:57.370Z,34.70
2019-03-22T04:29:07.523Z,36.42
2019-03-22T04:30:22.160Z,36.82
2019-03-22T04:31:22.256Z,35.91
2019-03-22T04:32:22.142Z,36.94
2019-03-22T04:33:22.133Z,36.54
2019-03-22T04:34:22.133Z,35.83
2019-03-22T04:35:22.114Z,35.94
2019-03-22T04:36:22.100Z,35.85
2019-03-22T04:37:22.345Z,35.74
2019-03-22T04:38:22.079Z,36.35
2019-03-22T04:39:22.069Z,36.05
2019-03-22T04:40:22.056Z,40.08
2019-03-22T04:41:22.046Z,40.77
2019-03-22T04:42:22.038Z,35.90
2019-03-22T04:43:22.072Z,37.20
2019-03-22T04:44:22.012Z,38.31
2019-03-22T04:45:21.997Z,36.38
2019-03-22T04:46:21.990Z,36.18
2019-03-22T04:47:21.980Z,36.49
2019-03-22T04:48:21.971Z,36.10
2019-03-22T04:49:22.057Z,35.90
2019-03-22T04:50:21.945Z,36.00
2019-03-22T04:51:21.933Z,36.62
2019-03-22T04:52:21.927Z,36.12
2019-03-22T04:53:22.160Z,37.03
2019-03-22T04:54:21.905Z,30.85
2019-03-22T04:55:22.293Z,34.19
2019-03-22T04:56:21.880Z,35.39
2019-03-22T04:57:21.871Z,38.91
2019-03-22T04:58:21.862Z,36.50
2019-03-22T04:59:21.846Z,37.71
2019-03-22T05:00:21.839Z,40.73
2019-03-22T05:01:21.881Z,38.20
2019-03-22T05:02:21.813Z,38.83
2019-03-22T05:03:21.806Z,39.74
2019-03-22T05:04:21.797Z,39.84
2019-03-22T05:05:21.792Z,40.16
2019-03-22T05:06:21.770Z,40.75
2019-03-22T05:07:21.809Z,40.67
2019-03-22T05:08:21.751Z,42.29
2019-03-22T05:09:21.736Z,41.36
2019-03-22T05:10:21.730Z,41.96
2019-03-22T05:11:21.720Z,41.13
2019-03-22T05:12:21.710Z,41.25
2019-03-22T05:13:21.842Z,41.56
2019-03-22T05:14:21.686Z,41.87
2019-03-22T05:15:21.675Z,41.68
2019-03-22T05:16:21.665Z,41.27
2019-03-22T05:17:21.657Z,41.27
2019-03-22T05:18:21.645Z,41.30
2019-03-22T05:19:21.683Z,41.90
2019-03-22T05:20:21.618Z,41.90
2019-03-22T05:21:21.610Z,42.10
2019-03-22T05:22:21.597Z,42.41
2019-03-22T05:23:21.587Z,42.21
2019-03-22T05:24:21.585Z,42.61
2019-03-22T05:25:21.669Z,42.10
2019-03-22T05:26:21.552Z,42.61
2019-03-22T05:27:21.541Z,41.38
2019-03-22T05:28:21.534Z,40.85
2019-03-22T05:29:30.179Z,41.87
2019-03-22T05:30:23.010Z,42.25
2019-03-22T05:31:21.501Z,40.22
2019-03-22T05:32:21.488Z,41.24
2019-03-22T05:33:21.479Z,38.80
2019-03-22T05:34:21.470Z,38.49
2019-03-22T05:35:21.460Z,38.59
2019-03-22T05:36:21.498Z,38.80
2019-03-22T05:37:21.438Z,38.18
2019-03-22T05:38:21.426Z,38.07
2019-03-22T05:39:21.418Z,37.76
2019-03-22T05:40:21.402Z,38.57
2019-03-22T05:41:21.397Z,37.44
2019-03-22T05:42:21.486Z,37.44
2019-03-22T05:43:21.369Z,36.74
2019-03-22T05:44:21.364Z,37.65
2019-03-22T05:45:21.353Z,37.02
2019-03-22T05:46:21.340Z,38.51
2019-03-22T05:47:21.333Z,36.70
2019-03-22T05:48:21.474Z,35.79
2019-03-22T05:49:21.314Z,35.59
2019-03-22T05:50:21.301Z,36.08
2019-03-22T05:51:21.290Z,35.37
2019-03-22T05:52:21.275Z,36.08
2019-03-22T05:53:21.267Z,36.37
2019-03-22T05:54:21.358Z,35.14
2019-03-22T05:55:21.265Z,34.13
2019-03-22T05:56:21.237Z,32.61
2019-03-22T05:57:21.232Z,32.20
2019-03-22T05:58:21.218Z,31.30
2019-03-22T05:59:21.205Z,31.60
2019-03-22T06:00:21.245Z,31.70
2019-03-22T06:01:21.186Z,31.28
2019-03-22T06:02:21.172Z,31.39
2019-03-22T06:03:21.164Z,30.98
2019-03-22T06:04:21.152Z,31.17
2019-03-22T06:05:21.141Z,31.37
2019-03-22T06:06:21.279Z,31.67
2019-03-22T06:07:21.120Z,31.57
2019-03-22T06:08:21.110Z,31.67
2019-03-22T06:09:21.095Z,30.16
2019-03-22T06:10:21.086Z,29.96
2019-03-22T06:11:21.078Z,29.66
2019-03-22T06:12:21.170Z,30.46
2019-03-22T06:13:21.054Z,31.57
2019-03-22T06:14:21.044Z,31.47
2019-03-22T06:15:21.031Z,31.37
2019-03-22T06:16:21.022Z,31.56
2019-03-22T06:17:21.016Z,30.65
2019-03-22T06:18:21.046Z,30.65
2019-03-22T06:19:20.986Z,30.85
2019-03-22T06:20:20.979Z,31.25
2019-03-22T06:21:20.967Z,30.55
2019-03-22T06:22:20.957Z,30.56
2019-03-22T06:23:20.949Z,31.05
2019-03-22T06:24:22.345Z,30.45
2019-03-22T06:25:20.946Z,30.46
2019-03-22T06:26:20.916Z,30.56
2019-03-22T06:27:20.902Z,30.45
2019-03-22T06:28:20.887Z,30.05
2019-03-22T06:29:20.897Z,30.45
2019-03-22T06:30:20.970Z,30.15
2019-03-22T06:31:20.880Z,30.65
2019-03-22T06:32:20.845Z,32.34
2019-03-22T06:33:20.834Z,30.63
2019-03-22T06:34:20.822Z,30.54
2019-03-22T06:35:20.809Z,30.45
2019-03-22T06:36:20.850Z,31.25
2019-03-22T06:37:20.791Z,31.94
2019-03-22T06:38:20.778Z,31.24
2019-03-22T06:39:20.769Z,32.43
2019-03-22T06:40:20.755Z,35.43
2019-03-22T06:41:20.748Z,35.31
2019-03-22T06:42:20.986Z,34.59
2019-03-22T06:43:20.730Z,34.39
2019-03-22T06:44:20.712Z,31.78
2019-03-22T06:45:20.702Z,33.99
2019-03-22T06:46:20.695Z,32.28
2019-03-22T06:47:20.689Z,27.68
2019-03-22T06:48:20.716Z,27.60
2019-03-22T06:49:20.661Z,28.60
2019-03-22T06:50:20.645Z,29.52
2019-03-22T06:51:20.632Z,30.52
2019-03-22T06:52:20.627Z,28.91
2019-03-22T06:53:20.610Z,32.23
2019-03-22T06:54:31.086Z,30.74
2019-03-22T06:55:45.407Z,30.23
2019-03-22T06:56:45.394Z,31.35
2019-03-22T06:57:45.387Z,30.25
2019-03-22T06:58:45.375Z,32.26
2019-03-22T06:59:45.614Z,30.45
2019-03-22T07:00:45.353Z,32.66
2019-03-22T07:01:45.344Z,30.75
2019-03-22T07:02:45.334Z,29.94
2019-03-22T07:03:45.322Z,30.35
2019-03-22T07:04:45.306Z,30.25
2019-03-22T07:05:45.399Z,31.27
2019-03-22T07:06:45.286Z,28.96
2019-03-22T07:07:45.279Z,29.36
2019-03-22T07:08:45.265Z,29.66
2019-03-22T07:09:45.260Z,31.56
2019-03-22T07:10:45.247Z,30.46
2019-03-22T07:11:45.285Z,32.37
2019-03-22T07:12:45.222Z,32.78
2019-03-22T07:13:45.207Z,32.98
2019-03-22T07:14:45.201Z,34.08
2019-03-22T07:15:45.190Z,34.58
2019-03-22T07:16:45.177Z,34.80
2019-03-22T07:17:45.417Z,34.50
2019-03-22T07:18:45.156Z,34.50
2019-03-22T07:19:45.142Z,35.52
2019-03-22T07:20:45.135Z,35.02
2019-03-22T07:21:45.121Z,35.72
2019-03-22T07:22:45.166Z,36.03
2019-03-22T07:23:45.149Z,35.02
2019-03-22T07:24:45.092Z,35.02
2019-03-22T07:25:45.080Z,33.81
2019-03-22T07:26:45.067Z,33.19
2019-03-22T07:27:45.058Z,31.99
2019-03-22T07:28:45.047Z,36.19
2019-03-22T07:29:45.084Z,29.36
2019-03-22T07:30:45.021Z,30.15
2019-03-22T07:31:45.013Z,35.18
2019-03-22T07:32:45.005Z,31.45
2019-03-22T07:33:44.995Z,30.45
2019-03-22T07:34:44.981Z,28.44
2019-03-22T07:35:45.176Z,29.94
2019-03-22T07:36:46.996Z,32.75
2019-03-22T07:37:44.947Z,34.57
2019-03-22T07:38:44.944Z,35.47
2019-03-22T07:39:44.930Z,35.47
2019-03-22T07:40:44.921Z,36.48
2019-03-22T07:41:44.964Z,35.68
2019-03-22T07:42:44.903Z,35.88
2019-03-22T07:43:44.886Z,34.77
2019-03-22T07:44:44.882Z,36.19
2019-03-22T07:45:44.874Z,35.90
2019-03-22T07:46:44.861Z,35.79
2019-03-22T07:47:44.945Z,35.51
2019-03-22T07:48:44.836Z,34.40
2019-03-22T07:49:44.826Z,34.82
2019-03-22T07:50:44.814Z,35.43
2019-03-22T07:51:44.806Z,34.74
2019-03-22T07:52:44.796Z,34.74
2019-03-22T07:53:45.233Z,33.33
2019-03-22T07:54:44.773Z,34.15
2019-03-22T07:55:44.765Z,34.67
2019-03-22T07:56:44.753Z,34.28
2019-03-22T07:57:44.743Z,35.09
2019-03-22T07:58:44.732Z,35.29
2019-03-22T07:59:44.773Z,35.61
2019-03-22T08:00:44.707Z,35.51
2019-03-22T08:01:44.699Z,36.03
2019-03-22T08:02:44.689Z,34.52
2019-03-22T08:03:44.676Z,35.32
2019-03-22T08:04:44.665Z,36.23
2019-03-22T08:05:50.788Z,35.52
2019-03-22T08:07:09.465Z,35.43
2019-03-22T08:08:09.448Z,36.15
2019-03-22T08:09:09.437Z,34.83
2019-03-22T08:10:09.430Z,35.16
2019-03-22T08:11:09.576Z,32.73
2019-03-22T08:12:09.403Z,33.55
2019-03-22T08:13:09.396Z,33.86
2019-03-22T08:14:09.384Z,34.17
2019-03-22T08:15:09.396Z,33.48
2019-03-22T08:16:09.383Z,33.30
2019-03-22T08:17:09.455Z,33.91
2019-03-22T08:18:09.377Z,34.31
2019-03-22T08:19:09.337Z,34.41
2019-03-22T08:20:09.324Z,35.65
2019-03-22T08:21:09.314Z,34.73
2019-03-22T08:22:09.330Z,33.41
2019-03-22T08:23:09.382Z,33.01
2019-03-22T08:24:09.277Z,33.41
2019-03-22T08:25:09.306Z,33.82
2019-03-22T08:26:09.269Z,33.40
2019-03-22T08:27:09.269Z,35.63
2019-03-22T08:28:09.238Z,36.13
2019-03-22T08:29:09.382Z,36.86
2019-03-22T08:30:09.220Z,37.46
2019-03-22T08:31:09.206Z,39.49
2019-03-22T08:32:09.212Z,39.80
2019-03-22T08:33:09.198Z,39.20
2019-03-22T08:34:09.179Z,39.71
2019-03-22T08:35:09.265Z,39.80
2019-03-22T08:36:09.158Z,37.26
2019-03-22T08:37:09.177Z,36.27
2019-03-22T08:38:09.130Z,36.45
2019-03-22T08:39:09.119Z,37.26
2019-03-22T08:40:09.144Z,36.56
2019-03-22T08:41:09.212Z,37.06
2019-03-22T08:42:09.093Z,36.65
2019-03-22T08:43:09.073Z,36.05
2019-03-22T08:44:09.071Z,35.74
2019-03-22T08:45:11.277Z,36.25
2019-03-22T08:46:09.043Z,36.05
2019-03-22T08:47:09.181Z,36.15
2019-03-22T08:48:09.023Z,36.25
2019-03-22T08:49:09.690Z,35.44
2019-03-22T08:50:08.998Z,36.54
2019-03-22T08:51:09.021Z,35.22
2019-03-22T08:52:08.999Z,35.63
2019-03-22T08:53:09.016Z,36.34
2019-03-22T08:54:08.996Z,36.52
2019-03-22T08:55:08.946Z,35.91
2019-03-22T08:56:08.939Z,35.79
2019-03-22T08:57:08.927Z,36.30
2019-03-22T08:58:08.916Z,36.50
2019-03-22T08:59:09.115Z,35.59
2019-03-22T09:00:08.957Z,36.10
2019-03-22T09:01:08.901Z,36.10
2019-03-22T09:02:08.875Z,36.40
2019-03-22T09:03:08.860Z,35.98
2019-03-22T09:04:08.849Z,36.38
2019-03-22T09:05:08.990Z,36.08
2019-03-22T09:06:08.829Z,36.20
2019-03-22T09:07:08.831Z,36.20
2019-03-22T09:08:08.805Z,37.03
2019-03-22T09:09:08.791Z,37.62
2019-03-22T09:10:08.791Z,36.50
2019-03-22T09:11:08.857Z,36.42
2019-03-22T09:12:08.788Z,36.43
2019-03-22T09:13:08.749Z,36.35
2019-03-22T09:14:08.760Z,36.86
2019-03-22T09:15:08.749Z,38.28
2019-03-22T09:16:08.723Z,38.78
2019-03-22T09:17:08.781Z,39.58
2019-03-22T09:18:08.701Z,39.69
2019-03-22T09:19:08.698Z,39.78
2019-03-22T09:20:08.733Z,38.56
2019-03-22T09:21:08.665Z,39.78
2019-03-22T09:22:08.699Z,39.89
2019-03-22T09:23:08.798Z,41.37
2019-03-22T09:24:08.633Z,42.98
2019-03-22T09:25:08.629Z,42.35
2019-03-22T09:26:08.641Z,41.94
2019-03-22T09:27:08.606Z,42.45
2019-03-22T09:28:10.384Z,41.96
2019-03-22T09:29:08.641Z,42.24
2019-03-22T09:30:08.586Z,42.35
2019-03-22T09:31:10.611Z,41.72
2019-03-22T09:32:08.600Z,42.33
2019-03-22T09:33:08.554Z,41.82
2019-03-22T09:34:08.528Z,42.53
2019-03-22T09:35:08.568Z,41.84
2019-03-22T09:36:08.535Z,43.40
2019-03-22T09:37:09.048Z,43.53
2019-03-22T09:38:13.127Z,43.02
2019-03-22T09:39:08.530Z,43.53
2019-03-22T09:40:08.812Z,44.03
2019-03-22T09:41:08.615Z,44.84
2019-03-22T09:42:08.523Z,44.23
2019-03-22T09:43:08.428Z,43.22
2019-03-22T09:44:08.428Z,44.13
2019-03-22T09:45:08.407Z,42.93
2019-03-22T09:46:08.394Z,44.15
2019-03-22T09:47:08.543Z,43.42
2019-03-22T09:48:08.377Z,42.10
2019-03-22T09:49:08.364Z,42.73
2019-03-22T09:50:08.354Z,43.85
2019-03-22T09:51:08.344Z,43.65
2019-03-22T09:52:42.907Z,44.76
2019-03-22T09:53:08.333Z,44.25
2019-03-22T09:54:08.309Z,44.05
2019-03-22T09:55:13.664Z,44.66
2019-03-22T09:56:08.292Z,44.66
2019-03-22T09:57:08.280Z,43.04
2019-03-22T09:58:08.456Z,42.53
2019-03-22T09:59:08.260Z,42.65
2019-03-22T10:00:08.299Z,43.44
2019-03-22T10:01:08.274Z,44.05
2019-03-22T10:02:08.224Z,43.62
2019-03-22T10:03:08.213Z,42.61
2019-03-22T10:04:08.272Z,43.62
2019-03-22T10:05:08.213Z,43.75
2019-03-22T10:06:08.177Z,43.02
2019-03-22T10:07:08.177Z,42.41
2019-03-22T10:08:08.182Z,41.78
2019-03-22T10:09:08.147Z,41.35
2019-03-22T10:10:08.182Z,42.47
2019-03-22T10:11:08.155Z,42.16
2019-03-22T10:12:08.128Z,42.47
2019-03-22T10:13:08.137Z,42.77
2019-03-22T10:14:08.093Z,42.77
2019-03-22T10:15:08.088Z,42.37
2019-03-22T10:16:08.286Z,41.68
2019-03-22T10:17:08.092Z,42.59
2019-03-22T10:18:08.055Z,43.71
2019-03-22T10:19:08.095Z,42.16
2019-03-22T10:20:08.031Z,42.13
2019-03-22T10:21:08.019Z,41.30
2019-03-22T10:22:08.067Z,41.40
2019-03-22T10:23:07.997Z,40.99
2019-03-22T10:24:07.986Z,41.52
2019-03-22T10:25:08.051Z,41.21
2019-03-22T10:26:07.964Z,42.24
2019-03-22T10:27:07.958Z,40.87
2019-03-22T10:28:08.056Z,39.53
2019-03-22T10:29:07.960Z,39.37
2019-03-22T10:30:07.954Z,40.22
2019-03-22T10:31:07.914Z,39.80
2019-03-22T10:32:07.898Z,40.22
2019-03-22T10:33:07.970Z,40.22
2019-03-22T10:34:08.085Z,40.10
2019-03-22T10:35:07.931Z,40.71
2019-03-22T10:36:07.923Z,40.00
2019-03-22T10:37:07.845Z,39.69
2019-03-22T10:38:15.908Z,39.49
2019-03-22T10:39:32.723Z,39.71
2019-03-22T10:40:32.713Z,39.80
2019-03-22T10:41:32.665Z,39.29
2019-03-22T10:42:32.681Z,40.00
2019-03-22T10:43:32.650Z,39.20
2019-03-22T10:44:32.683Z,40.54
2019-03-22T10:45:32.694Z,40.72
2019-03-22T10:46:32.614Z,41.21
2019-03-22T10:47:32.635Z,40.99
2019-03-22T10:48:32.685Z,39.56
2019-03-22T10:49:32.584Z,39.22
2019-03-22T10:50:32.774Z,38.39
2019-03-22T10:51:32.565Z,36.98
2019-03-22T10:52:32.550Z,37.29
2019-03-22T10:53:32.602Z,38.54
2019-03-22T10:54:32.534Z,38.06
2019-03-22T10:55:35.378Z,39.27
2019-03-22T10:56:32.559Z,38.46
2019-03-22T10:57:32.495Z,38.97
2019-03-22T10:58:32.484Z,38.76
2019-03-22T10:59:32.475Z,39.27
2019-03-22T11:00:32.462Z,39.27
2019-03-22T11:01:32.455Z,39.33
2019-03-22T11:02:32.486Z,38.81
2019-03-22T11:03:32.484Z,37.40
2019-03-22T11:04:32.420Z,37.64
2019-03-22T11:05:32.408Z,38.64
2019-03-22T11:06:32.399Z,39.35
2019-03-22T11:07:32.390Z,39.00
2019-03-22T11:08:32.528Z,37.29
2019-03-22T11:09:32.365Z,38.61
2019-03-22T11:10:32.354Z,37.90
2019-03-22T11:11:32.344Z,37.80
2019-03-22T11:12:32.334Z,38.73
2019-03-22T11:13:32.322Z,38.61
2019-03-22T11:14:32.362Z,36.27
2019-03-22T11:15:32.295Z,36.99
2019-03-22T11:16:32.289Z,38.80
2019-03-22T11:17:32.279Z,37.66
2019-03-22T11:18:37.288Z,37.02
2019-03-22T11:19:32.255Z,36.50
2019-03-22T11:20:32.346Z,35.10
2019-03-22T11:21:32.232Z,36.23
2019-03-22T11:22:32.224Z,36.16
2019-03-22T11:23:32.215Z,36.18
2019-03-22T11:24:32.204Z,37.01
2019-03-22T11:25:32.193Z,36.84
2019-03-22T11:26:32.430Z,38.76
2019-03-22T11:27:32.170Z,37.75
2019-03-22T11:28:32.155Z,37.65
2019-03-22T11:29:32.150Z,39.07
2019-03-22T11:30:32.135Z,39.47
2019-03-22T11:31:39.511Z,38.02
2019-03-22T11:32:56.980Z,37.66
2019-03-22T11:33:56.968Z,36.94
2019-03-22T11:34:56.958Z,36.74
2019-03-22T11:35:56.949Z,36.23
2019-03-22T11:36:56.934Z,35.71
2019-03-22T11:37:56.980Z,36.12
2019-03-22T11:38:56.912Z,35.29
2019-03-22T11:39:56.905Z,36.13
2019-03-22T11:40:56.891Z,37.32
2019-03-22T11:41:56.883Z,35.93
2019-03-22T11:42:56.871Z,37.53
2019-03-22T11:43:57.071Z,36.10
2019-03-22T11:44:56.851Z,36.68
2019-03-22T11:45:56.837Z,36.68
2019-03-22T11:46:56.825Z,36.46
2019-03-22T11:47:56.820Z,36.57
2019-03-22T11:48:56.802Z,35.17
2019-03-22T11:49:56.899Z,34.30
2019-03-22T11:50:56.786Z,36.05
2019-03-22T11:51:56.777Z,36.27
2019-03-22T11:52:56.767Z,36.57
2019-03-22T11:53:56.756Z,38.87
2019-03-22T11:54:56.742Z,36.74
2019-03-22T11:55:56.776Z,37.01
2019-03-22T11:56:56.721Z,36.60
2019-03-22T11:57:56.714Z,36.50
2019-03-22T11:58:56.695Z,35.30
2019-03-22T11:59:56.690Z,35.90
2019-03-22T12:00:56.674Z,37.01
2019-03-22T12:01:56.819Z,37.01
2019-03-22T12:02:56.652Z,36.48
2019-03-22T12:03:56.645Z,36.48
2019-03-22T12:04:56.632Z,36.19
2019-03-22T12:05:56.624Z,36.10
2019-03-22T12:06:56.613Z,36.10
2019-03-22T12:07:56.653Z,37.02
2019-03-22T12:08:56.590Z,36.70
2019-03-22T12:09:56.578Z,36.88
2019-03-22T12:10:56.563Z,35.59
2019-03-22T12:11:56.556Z,35.78
2019-03-22T12:12:56.548Z,36.30
2019-03-22T12:13:56.586Z,36.08
2019-03-22T12:14:56.526Z,35.99
2019-03-22T12:15:56.514Z,34.90
2019-03-22T12:16:56.786Z,36.01
2019-03-22T12:17:56.491Z,36.94
2019-03-22T12:18:56.478Z,35.02
2019-03-22T12:19:56.621Z,35.72
2019-03-22T12:20:56.655Z,36.94
2019-03-22T12:21:56.446Z,36.92
2019-03-22T12:22:56.437Z,36.90
2019-03-22T12:23:56.425Z,36.40
2019-03-22T12:24:56.417Z,36.28
2019-03-22T12:25:56.449Z,36.50
2019-03-22T12:26:56.393Z,36.10
2019-03-22T12:27:56.381Z,36.62
2019-03-22T12:28:56.372Z,36.03
2019-03-22T12:29:56.358Z,36.23
2019-03-22T12:30:56.346Z,35.85
2019-03-22T12:31:56.439Z,36.55
2019-03-22T12:32:56.327Z,37.44
2019-03-22T12:33:56.319Z,36.74
2019-03-22T12:34:56.306Z,36.92
2019-03-22T12:35:56.299Z,36.13
2019-03-22T12:36:56.277Z,36.45
2019-03-22T12:37:57.781Z,37.44
2019-03-22T12:38:56.265Z,37.43
2019-03-22T12:39:56.253Z,37.31
2019-03-22T12:40:56.237Z,36.68
2019-03-22T12:41:56.230Z,36.37
2019-03-22T12:42:56.748Z,34.87
2019-03-22T12:43:56.256Z,36.18
2019-03-22T12:44:56.193Z,36.21
2019-03-22T12:45:56.185Z,37.12
2019-03-22T12:46:56.170Z,37.31
2019-03-22T12:47:56.158Z,35.69
2019-03-22T12:48:56.149Z,35.41
2019-03-22T12:49:56.243Z,37.16
2019-03-22T12:50:56.129Z,37.96
2019-03-22T12:51:56.112Z,37.54
2019-03-22T12:52:56.121Z,37.75
2019-03-22T12:53:56.093Z,36.84
2019-03-22T12:54:56.080Z,37.93
2019-03-22T12:55:56.225Z,35.93
2019-03-22T12:56:56.061Z,37.54
2019-03-22T12:57:56.053Z,37.54
2019-03-22T12:58:56.037Z,38.23
2019-03-22T12:59:56.027Z,36.34
2019-03-22T13:00:56.020Z,36.96
2019-03-22T13:01:56.110Z,36.77
2019-03-22T13:02:55.999Z,38.11
2019-03-22T13:03:55.988Z,38.22
2019-03-22T13:04:55.971Z,38.11
2019-03-22T13:05:55.962Z,37.21
2019-03-22T13:06:55.955Z,38.22
2019-03-22T13:07:55.994Z,37.45
2019-03-22T13:08:55.931Z,38.36
2019-03-22T13:09:55.915Z,38.38
2019-03-22T13:10:55.905Z,38.89
2019-03-22T13:11:55.896Z,40.81
2019-03-22T13:12:55.884Z,38.97
2019-03-22T13:13:56.074Z,38.36
2019-03-22T13:14:56.718Z,39.15
2019-03-22T13:15:55.864Z,40.04
2019-03-22T13:16:55.838Z,39.22
2019-03-22T13:17:55.832Z,38.20
2019-03-22T13:18:55.823Z,38.33
2019-03-22T13:19:55.860Z,38.76
2019-03-22T13:20:55.799Z,39.67
2019-03-22T13:21:55.790Z,39.59
2019-03-22T13:22:55.778Z,39.39
2019-03-22T13:23:55.763Z,39.88
2019-03-22T13:24:55.749Z,39.56
2019-03-22T13:25:55.849Z,39.15
2019-03-22T13:26:55.728Z,40.35
2019-03-22T13:27:55.719Z,39.50
2019-03-22T13:28:55.713Z,39.08
2019-03-22T13:29:55.697Z,37.06
2019-03-22T13:30:55.691Z,37.78
2019-03-22T13:31:55.832Z,38.22
2019-03-22T13:32:55.667Z,38.85
2019-03-22T13:33:55.657Z,39.17
2019-03-22T13:34:55.643Z,39.41
2019-03-22T13:35:55.635Z,40.95
2019-03-22T13:36:55.622Z,41.78
2019-03-22T13:37:55.665Z,40.85
2019-03-22T13:38:55.603Z,40.86
2019-03-22T13:39:55.595Z,42.04
2019-03-22T13:40:55.580Z,41.19
2019-03-22T13:41:55.570Z,40.55
2019-03-22T13:42:55.556Z,39.30
2019-03-22T13:43:55.651Z,38.00
2019-03-22T13:44:55.543Z,39.33
2019-03-22T13:45:55.523Z,39.42
2019-03-22T13:46:55.518Z,39.60
2019-03-22T13:47:55.503Z,39.40
2019-03-22T13:48:55.497Z,38.78
2019-03-22T13:49:55.630Z,38.15
2019-03-22T13:50:55.470Z,38.76
2019-03-22T13:51:55.464Z,38.55
2019-03-22T13:52:55.451Z,37.63
2019-03-22T13:53:55.445Z,38.05
2019-03-22T13:54:55.434Z,38.76
2019-03-22T13:55:55.466Z,38.55
2019-03-22T13:56:55.405Z,38.96